LRBS/BBU METAR and TAF weather

Enter ICAO airport designator
Station Type Date Time Source
LRBS METAR 2022/01/26 08:30 UTC NOAA

LRBS 260830Z 27004KT 240V320 CAVOK M02/M09 Q1023 NOSIG


Station Type Date Time Source
LRBS Decoded METAR 2022/01/26 08:30 UTC NOAA

Bucuresti / Imh, Romania (LRBS) 44-30N 026-08E 91M
Jan 26, 2022 - 03:30 AM EST / 2022.01.26 0830 UTC
Wind: from the W (270 degrees) at 5 MPH (4 KT) (direction variable):0
Visibility: greater than 7 mile(s):0
Temperature: 28 F (-2 C)
Windchill: 23 F (-5 C):1
Dew Point: 15 F (-9 C)
Relative Humidity: 58%
Pressure (altimeter): 30.21 in. Hg (1023 hPa)
ob: LRBS 260830Z 27004KT 240V320 CAVOK M02/M09 Q1023 NOSIG
cycle: 8

Station Type Date Time Source
LRBS TAF 2022/01/26 06:33 UTC NOAA

TAF TAF LRBS 260500Z 2606/2706 25005KT CAVOK
BECMG 2622/2700 5000 BR
TEMPO 2702/2706 1500 BR BKN005

Example: see airport list